Aérodrome :
LOGIN :

S'inscrire | Disclaimer

   EN    FR    IT 

 










Légende :    VFR   VFR Marginal   IFR   IFR Intensif   IFR Très Intensif
Visi : 
Plafond : 
>= 8 km
>= 3000ft
5 à 8 km
1000 à 3000 ft
1500m à 5 km
500 à 1000 ft
800 à 1500m
200 à 500 ft
< 800m
< 200 ft
Symboles :   Orages  Brouillard  Fortes neiges  Fortes précipitations  Vent > 20 kt
SIGMETs :   Divers  Orages  Givrage  Turbulence  Onde Orograph.  Cendres Volcan.







- Altitude de l'aérodrome : 24 ft
- Code IATA : IBZ


LEIB - Ibiza

DERNIER METAR :
  • 211800Z 08010KT 050V110 9999 FEW010 27/17 Q1018 NOSIG

METARs EXPIRÉS :
  • 211730Z 09009KT 060V120 CAVOK 26/17 Q1017 NOSIG
  • 211700Z 09010KT 060V120 9999 FEW010 27/17 Q1017 NOSIG
  • 211630Z 09010KT 9999 FEW010 27/18 Q1018 NOSIG
  • 211600Z 09010KT 050V120 9999 FEW010 28/17 Q1017 NOSIG
  • 211530Z 09010KT 060V130 9999 FEW010 28/16 Q1017 NOSIG

TAF TAF LEIB
Valide du 21 à 15h jusqu'au 22 à 15h UTC


211400Z 2115/2215 08010KT 9999 FEW030 TX31/2212Z TN22/2205Z
BECMG 2118/2120 02006KT
Pas de NOTAMs connus pour ce terrain.



MET'MAP, la Météo Aéronautique d'un coup d'oeil ! - Copyright ORBIFLY Décembre 2007 - Disclaimer

ORBIFLY MET'MAP TEAM :

Programmation & Développement : Alexandra Zaïnal
Conception & Développement : Baudouin d'Aumeries
Co-Programmation & Développement : Marc-Olivier Méhu
Soutien technique & logistique : Manuel Goepfert

Contact : metmap@orbifly.com




SOURCES & CREDITS :

   NOAA